Pearl Of Scandinavia — OWFU2 — position and weather

sailwx.info

Track history (hours):
 
Tides and Currents Weather Stations Pressure Air Temp Water Temp Dewpoint Dewpoint Depression Visibility Wind Speed Wind Dir Waves Ship Positions

Pearl Of Scandinavia

Last reported at 2020-Jan-18 15:00 UTC. Time now 2020-Jan-18 15:14 UTC.
Position N 55°42' E 012°36'.

Length 176.4 m; beam 34 m; draft 6.215 m.

Type: Ship. MMSI: 219945000.

Date/timePositionNaut miles runAvg speedWind from/ knotsBaromVisibWave heightAir tempDewpointWater temp
2020-Jan-18 15:00N 55°42' E 012°36'0 0.0
2020-Jan-18 13:24N 55°42' E 012°36'0 0.0
2020-Jan-18 10:30N 55°42' E 012°36'0 0.0
2020-Jan-18 09:54N 55°42' E 012°36'25 7.4
2020-Jan-18 06:30N 56°07' E 012°32'915.6
2020-Jan-18 05:55N 56°16' E 012°25'6216.0
2020-Jan-18 02:00N 57°15' E 011°49'1616.1
2020-Jan-18 01:00N 57°28' E 011°32'1716.8
2020-Jan-18 00:00N 57°43' E 011°19'6516.3
2020-Jan-17 20:00N 58°45' E 010°38'2416.0
2020-Jan-17 18:30N 59°09' E 010°38'1717.0
2020-Jan-17 17:30N 59°25' E 010°33'1615.6
2020-Jan-17 16:30N 59°41' E 010°36'14 9.1
2020-Jan-17 14:59N 59°54' E 010°45'0 0.0
2020-Jan-17 11:29N 59°54' E 010°45'0 0.1
2020-Jan-17 08:30N 59°54' E 010°44'2013.3
2020-Jan-17 07:00N 59°35' E 010°38'3215.8
2020-Jan-17 05:00N 59°03' E 010°41'815.8
2020-Jan-17 04:30N 58°55' E 010°43'815.3
2020-Jan-17 04:00N 58°47' E 010°44'2415.8
2020-Jan-17 02:30N 58°25' E 010°56'3216.0
2020-Jan-17 00:31N 57°54' E 011°16'11516.1
2020-Jan-16 17:22N 56°07' E 012°33'616.0
2020-Jan-16 17:00N 56°03' E 012°39'21 6.8
2020-Jan-16 13:57N 55°42' E 012°36'0 0.0
2020-Jan-16 13:00N 55°42' E 012°36'0 0.0
2020-Jan-16 12:30N 55°42' E 012°36'0 0.0
2020-Jan-16 11:48N 55°42' E 012°36'0 0.0
2020-Jan-16 11:00N 55°42' E 012°36'0 0.0
2020-Jan-16 09:30N 55°42' E 012°36'0 0.3
2020-Jan-16 08:30N 55°42' E 012°36'9515.2
2020-Jan-16 02:14N 57°14' E 011°51'1115.8
2020-Jan-16 01:30N 57°24' E 011°39'3216.0
2020-Jan-15 23:30N 57°52' E 011°11'1616.4
2020-Jan-15 22:30N 58°07' E 010°58'3915.7
2020-Jan-15 20:00N 58°45' E 010°38'816.2
2020-Jan-15 19:30N 58°53' E 010°38'2516.6
2020-Jan-15 18:00N 59°18' E 010°36'37 9.1
2020-Jan-15 13:59N 59°54' E 010°45'0 0.0
2020-Jan-15 12:29N 59°54' E 010°45'0 0.0
2020-Jan-15 11:29N 59°54' E 010°45'0 0.0
2020-Jan-15 09:29N 59°54' E 010°45'0 0.1
2020-Jan-15 08:30N 59°54' E 010°45'5114.7
2020-Jan-15 05:00N 59°03' E 010°41'2315.4
2020-Jan-15 03:30N 58°40' E 010°47'1616.2
2020-Jan-15 02:30N 58°24' E 010°56'1616.2
2020-Jan-15 01:30N 58°09' E 011°05'2415.8
2020-Jan-15 00:00N 57°47' E 011°21'4015.8
2020-Jan-14 21:30N 57°11' E 011°54'816.6
2020-Jan-14 21:00N 57°04' E 012°00'5916.3
2020-Jan-14 17:23N 56°08' E 012°33'717.3
2020-Jan-14 17:00N 56°02' E 012°40'2010.1
2020-Jan-14 14:59N 55°42' E 012°36'0 0.0
2020-Jan-14 14:29N 55°42' E 012°36'0 0.0
2020-Jan-14 13:29N 55°42' E 012°36'0 0.0
2020-Jan-14 11:59N 55°42' E 012°36'0 0.0
2020-Jan-14 11:30N 55°42' E 012°36'0 0.0
2020-Jan-14 11:01N 55°42' E 012°36'0 0.0
2020-Jan-14 10:00N 55°42' E 012°36'10 4.1
2020-Jan-14 07:31N 55°52' E 012°41'1912.3
2020-Jan-14 06:00N 56°09' E 012°28'7815.6
2020-Jan-14 01:00N 57°20' E 011°28'7516.6
2020-Jan-13 20:30N 58°33' E 010°53'4417.8
2020-Jan-13 18:00N 59°16' E 010°36'1818.0
2020-Jan-13 17:00N 59°34' E 010°37'20 4.1
2020-Jan-13 12:00N 59°54' E 010°45'0 0.0
2020-Jan-13 11:00N 59°54' E 010°45'7 2.2
2020-Jan-13 08:00N 59°50' E 010°35'2214.7
2020-Jan-13 06:30N 59°27' E 010°34'2416.2
2020-Jan-13 05:00N 59°03' E 010°39'815.8
2020-Jan-13 04:30N 58°55' E 010°38'815.7
2020-Jan-13 04:00N 58°48' E 010°37'816.2
2020-Jan-13 03:30N 58°39' E 010°38'2516.9
2020-Jan-13 02:01N 58°15' E 010°49'816.6
2020-Jan-13 01:30N 58°07' E 010°54'1716.7
2020-Jan-13 00:30N 57°51' E 011°04'6916.1
2020-Jan-12 20:12N 56°47' E 011°55'4315.9
2020-Jan-12 17:30N 56°09' E 012°31'1615.8
2020-Jan-12 16:31N 55°55' E 012°44'815.2
2020-Jan-12 16:01N 55°48' E 012°43'712.9
2020-Jan-12 15:30N 55°42' E 012°36'0 0.1
2020-Jan-12 12:30N 55°42' E 012°36'0 0.0
2020-Jan-12 11:30N 55°42' E 012°36'0 0.0
2020-Jan-12 10:30N 55°42' E 012°36'8 5.2
2020-Jan-12 09:00N 55°49' E 012°42'815.9
2020-Jan-12 08:31N 55°57' E 012°40'10018.2
2020-Jan-12 03:01N 57°30' E 011°34'3618.0
2020-Jan-12 01:01N 58°02' E 011°01'1414.3
2020-Jan-12 00:01N 58°16' E 010°57'1414.0
2020-Jan-11 23:00N 58°30' E 010°50'713.6
2020-Jan-11 22:30N 58°36' E 010°46'1313.3
2020-Jan-11 21:30N 58°49' E 010°40'713.4
2020-Jan-11 21:00N 58°56' E 010°37'4511.3
2020-Jan-11 17:00N 59°41' E 010°37'1110.4
2020-Jan-11 16:00N 59°51' E 010°36'5 1.0
2020-Jan-11 10:58N 59°54' E 010°45'27 6.1
2020-Jan-11 06:31N 59°27' E 010°34'4916.2
2020-Jan-11 03:30N 58°39' E 010°47'816.7
2020-Jan-11 03:00N 58°31' E 010°52'816.3
2020-Jan-11 02:30N 58°23' E 010°58'1616.2
2020-Jan-11 01:30N 58°08' E 011°07'2416.1
2020-Jan-11 00:01N 57°45' E 011°22'816.2
2020-Jan-10 23:31N 57°38' E 011°28'9715.9
2020-Jan-10 17:26N 56°08' E 012°33'716.1
2020-Jan-10 17:01N 56°02' E 012°40'2013.4
2020-Jan-10 15:30N 55°42' E 012°36'0 0.1
2020-Jan-10 12:26N 55°42' E 012°36'0 0.0
2020-Jan-10 10:26N 55°42' E 012°36'0 0.2
2020-Jan-10 08:31N 55°42' E 012°36'510.4
2020-Jan-10 08:00N 55°47' E 012°41'714.2
2020-Jan-10 07:30N 55°54' E 012°40'714.5
2020-Jan-10 07:00N 56°01' E 012°40'713.9
2020-Jan-10 06:31N 56°06' E 012°32'7815.6
2020-Jan-10 01:30N 57°17' E 011°31'816.3
2020-Jan-10 01:01N 57°25' E 011°26'4317.0
2020-Jan-09 22:30N 58°06' E 011°06'5816.6
2020-Jan-09 19:00N 59°03' E 010°40'2617.6
2020-Jan-09 17:31N 59°29' E 010°34'26 8.6
2020-Jan-09 14:30N 59°54' E 010°45'0 0.0
2020-Jan-09 09:30N 59°54' E 010°45'0 0.0
2020-Jan-09 09:00N 59°54' E 010°45'1 1.3
2020-Jan-09 08:30N 59°54' E 010°43'7515.1
2020-Jan-09 03:30N 58°39' E 010°38'1717.5
2020-Jan-09 02:30N 58°21' E 010°44'14816.3
2020-Jan-08 17:27N 56°06' E 012°34'2412.4
2020-Jan-08 15:30N 55°42' E 012°36'  
Track history (hours):
 
Tides and Currents Weather Stations Pressure Air Temp Water Temp Dewpoint Dewpoint Depression Visibility Wind Speed Wind Dir Waves Ship Positions

Pearl Of Scandinavia

Last reported at 2020-Jan-18 15:00 UTC. Time now 2020-Jan-18 15:14 UTC.
Position N 55°42' E 012°36'.

Length 176.4 m; beam 34 m; draft 6.215 m.

Type: Ship. MMSI: 219945000.

Date/timePositionNaut miles runAvg speedWind from/ knotsBaromVisibWave heightAir tempDewpointWater temp
2020-Jan-18 15:00N 55°42' E 012°36'0 0.0
2020-Jan-18 13:24N 55°42' E 012°36'0 0.0
2020-Jan-18 10:30N 55°42' E 012°36'0 0.0
2020-Jan-18 09:54N 55°42' E 012°36'25 7.4
2020-Jan-18 06:30N 56°07' E 012°32'915.6
2020-Jan-18 05:55N 56°16' E 012°25'6216.0
2020-Jan-18 02:00N 57°15' E 011°49'1616.1
2020-Jan-18 01:00N 57°28' E 011°32'1716.8
2020-Jan-18 00:00N 57°43' E 011°19'6516.3
2020-Jan-17 20:00N 58°45' E 010°38'2416.0
2020-Jan-17 18:30N 59°09' E 010°38'1717.0
2020-Jan-17 17:30N 59°25' E 010°33'1615.6
2020-Jan-17 16:30N 59°41' E 010°36'14 9.1
2020-Jan-17 14:59N 59°54' E 010°45'0 0.0
2020-Jan-17 11:29N 59°54' E 010°45'0 0.1
2020-Jan-17 08:30N 59°54' E 010°44'2013.3
2020-Jan-17 07:00N 59°35' E 010°38'3215.8
2020-Jan-17 05:00N 59°03' E 010°41'815.8
2020-Jan-17 04:30N 58°55' E 010°43'815.3
2020-Jan-17 04:00N 58°47' E 010°44'2415.8
2020-Jan-17 02:30N 58°25' E 010°56'3216.0
2020-Jan-17 00:31N 57°54' E 011°16'11516.1
2020-Jan-16 17:22N 56°07' E 012°33'616.0
2020-Jan-16 17:00N 56°03' E 012°39'21 6.8
2020-Jan-16 13:57N 55°42' E 012°36'0 0.0
2020-Jan-16 13:00N 55°42' E 012°36'0 0.0
2020-Jan-16 12:30N 55°42' E 012°36'0 0.0
2020-Jan-16 11:48N 55°42' E 012°36'0 0.0
2020-Jan-16 11:00N 55°42' E 012°36'0 0.0
2020-Jan-16 09:30N 55°42' E 012°36'0 0.3
2020-Jan-16 08:30N 55°42' E 012°36'9515.2
2020-Jan-16 02:14N 57°14' E 011°51'1115.8
2020-Jan-16 01:30N 57°24' E 011°39'3216.0
2020-Jan-15 23:30N 57°52' E 011°11'1616.4
2020-Jan-15 22:30N 58°07' E 010°58'3915.7
2020-Jan-15 20:00N 58°45' E 010°38'816.2
2020-Jan-15 19:30N 58°53' E 010°38'2516.6
2020-Jan-15 18:00N 59°18' E 010°36'37 9.1
2020-Jan-15 13:59N 59°54' E 010°45'0 0.0
2020-Jan-15 12:29N 59°54' E 010°45'0 0.0
2020-Jan-15 11:29N 59°54' E 010°45'0 0.0
2020-Jan-15 09:29N 59°54' E 010°45'0 0.1
2020-Jan-15 08:30N 59°54' E 010°45'5114.7
2020-Jan-15 05:00N 59°03' E 010°41'2315.4
2020-Jan-15 03:30N 58°40' E 010°47'1616.2
2020-Jan-15 02:30N 58°24' E 010°56'1616.2
2020-Jan-15 01:30N 58°09' E 011°05'2415.8
2020-Jan-15 00:00N 57°47' E 011°21'4015.8
2020-Jan-14 21:30N 57°11' E 011°54'816.6
2020-Jan-14 21:00N 57°04' E 012°00'5916.3
2020-Jan-14 17:23N 56°08' E 012°33'717.3
2020-Jan-14 17:00N 56°02' E 012°40'2010.1
2020-Jan-14 14:59N 55°42' E 012°36'0 0.0
2020-Jan-14 14:29N 55°42' E 012°36'0 0.0
2020-Jan-14 13:29N 55°42' E 012°36'0 0.0
2020-Jan-14 11:59N 55°42' E 012°36'0 0.0
2020-Jan-14 11:30N 55°42' E 012°36'0 0.0
2020-Jan-14 11:01N 55°42' E 012°36'0 0.0
2020-Jan-14 10:00N 55°42' E 012°36'10 4.1
2020-Jan-14 07:31N 55°52' E 012°41'1912.3
2020-Jan-14 06:00N 56°09' E 012°28'7815.6
2020-Jan-14 01:00N 57°20' E 011°28'7516.6
2020-Jan-13 20:30N 58°33' E 010°53'4417.8
2020-Jan-13 18:00N 59°16' E 010°36'1818.0
2020-Jan-13 17:00N 59°34' E 010°37'20 4.1
2020-Jan-13 12:00N 59°54' E 010°45'0 0.0
2020-Jan-13 11:00N 59°54' E 010°45'7 2.2
2020-Jan-13 08:00N 59°50' E 010°35'2214.7
2020-Jan-13 06:30N 59°27' E 010°34'2416.2
2020-Jan-13 05:00N 59°03' E 010°39'815.8
2020-Jan-13 04:30N 58°55' E 010°38'815.7
2020-Jan-13 04:00N 58°48' E 010°37'816.2
2020-Jan-13 03:30N 58°39' E 010°38'2516.9
2020-Jan-13 02:01N 58°15' E 010°49'816.6
2020-Jan-13 01:30N 58°07' E 010°54'1716.7
2020-Jan-13 00:30N 57°51' E 011°04'6916.1
2020-Jan-12 20:12N 56°47' E 011°55'4315.9
2020-Jan-12 17:30N 56°09' E 012°31'1615.8
2020-Jan-12 16:31N 55°55' E 012°44'815.2
2020-Jan-12 16:01N 55°48' E 012°43'712.9
2020-Jan-12 15:30N 55°42' E 012°36'0 0.1
2020-Jan-12 12:30N 55°42' E 012°36'0 0.0
2020-Jan-12 11:30N 55°42' E 012°36'0 0.0
2020-Jan-12 10:30N 55°42' E 012°36'8 5.2
2020-Jan-12 09:00N 55°49' E 012°42'815.9
2020-Jan-12 08:31N 55°57' E 012°40'10018.2
2020-Jan-12 03:01N 57°30' E 011°34'3618.0
2020-Jan-12 01:01N 58°02' E 011°01'1414.3
2020-Jan-12 00:01N 58°16' E 010°57'1414.0
2020-Jan-11 23:00N 58°30' E 010°50'713.6
2020-Jan-11 22:30N 58°36' E 010°46'1313.3
2020-Jan-11 21:30N 58°49' E 010°40'713.4
2020-Jan-11 21:00N 58°56' E 010°37'4511.3
2020-Jan-11 17:00N 59°41' E 010°37'1110.4
2020-Jan-11 16:00N 59°51' E 010°36'5 1.0
2020-Jan-11 10:58N 59°54' E 010°45'27 6.1
2020-Jan-11 06:31N 59°27' E 010°34'4916.2
2020-Jan-11 03:30N 58°39' E 010°47'816.7
2020-Jan-11 03:00N 58°31' E 010°52'816.3
2020-Jan-11 02:30N 58°23' E 010°58'1616.2
2020-Jan-11 01:30N 58°08' E 011°07'2416.1
2020-Jan-11 00:01N 57°45' E 011°22'816.2
2020-Jan-10 23:31N 57°38' E 011°28'9715.9
2020-Jan-10 17:26N 56°08' E 012°33'716.1
2020-Jan-10 17:01N 56°02' E 012°40'2013.4
2020-Jan-10 15:30N 55°42' E 012°36'0 0.1
2020-Jan-10 12:26N 55°42' E 012°36'0 0.0
2020-Jan-10 10:26N 55°42' E 012°36'0 0.2
2020-Jan-10 08:31N 55°42' E 012°36'510.4
2020-Jan-10 08:00N 55°47' E 012°41'714.2
2020-Jan-10 07:30N 55°54' E 012°40'714.5
2020-Jan-10 07:00N 56°01' E 012°40'713.9
2020-Jan-10 06:31N 56°06' E 012°32'7815.6
2020-Jan-10 01:30N 57°17' E 011°31'816.3
2020-Jan-10 01:01N 57°25' E 011°26'4317.0
2020-Jan-09 22:30N 58°06' E 011°06'5816.6
2020-Jan-09 19:00N 59°03' E 010°40'2617.6
2020-Jan-09 17:31N 59°29' E 010°34'26 8.6
2020-Jan-09 14:30N 59°54' E 010°45'0 0.0
2020-Jan-09 09:30N 59°54' E 010°45'0 0.0
2020-Jan-09 09:00N 59°54' E 010°45'1 1.3
2020-Jan-09 08:30N 59°54' E 010°43'7515.1
2020-Jan-09 03:30N 58°39' E 010°38'1717.5
2020-Jan-09 02:30N 58°21' E 010°44'14816.3
2020-Jan-08 17:27N 56°06' E 012°34'2412.4
2020-Jan-08 15:30N 55°42' E 012°36'  

Dump ship's entire track history